createdAt,value
2023-02-13T00:00:09.010Z,98014.88
2023-02-13T00:02:43.406Z,98013.81
2023-02-13T00:05:16.460Z,98016.47
2023-02-13T00:07:49.315Z,98021.25
2023-02-13T00:10:22.477Z,98024.44
2023-02-13T00:12:55.350Z,98015.38
2023-02-13T00:15:28.701Z,98017.00
2023-02-13T00:18:03.092Z,98011.66
2023-02-13T00:20:36.065Z,98007.94
2023-02-13T00:23:08.942Z,98005.28
2023-02-13T00:25:41.868Z,98013.00
2023-02-13T00:28:15.117Z,98014.59
2023-02-13T00:30:48.163Z,98009.28
2023-02-13T00:33:22.899Z,98010.88
2023-02-13T00:36:04.199Z,98015.66
2023-02-13T00:38:37.649Z,98013.56
2023-02-13T00:41:11.457Z,98012.19
2023-02-13T00:43:44.685Z,98004.22
2023-02-13T00:46:18.380Z,98007.41
2023-02-13T00:48:52.721Z,98009.00
2023-02-13T00:51:25.695Z,98014.06
2023-02-13T00:53:58.698Z,98011.41
2023-02-13T00:56:31.625Z,98012.22
2023-02-13T00:59:04.571Z,98019.66
2023-02-13T01:01:37.592Z,98016.97
2023-02-13T01:04:12.201Z,98020.19
2023-02-13T01:06:45.127Z,98020.19
2023-02-13T01:09:18.068Z,98018.31
2023-02-13T01:11:51.491Z,98013.53
2023-02-13T01:14:24.508Z,98017.00
2023-02-13T01:16:57.545Z,98022.31
2023-02-13T01:19:31.959Z,98018.59
2023-02-13T01:22:12.547Z,98019.09
2023-02-13T01:24:50.222Z,98026.03
2023-02-13T01:27:23.280Z,98022.56
2023-02-13T01:30:00.813Z,98029.50
2023-02-13T01:32:33.703Z,98020.44
2023-02-13T01:35:09.745Z,98036.16
2023-02-13T01:37:44.203Z,98032.69
2023-02-13T01:40:17.700Z,98024.72
2023-02-13T01:42:50.939Z,98036.16
2023-02-13T01:45:31.432Z,98037.50
2023-02-13T01:48:08.599Z,98027.38
2023-02-13T01:50:47.653Z,98030.31
2023-02-13T01:53:40.854Z,98033.22
2023-02-13T01:56:21.986Z,98034.53
2023-02-13T01:58:59.442Z,98033.78
2023-02-13T02:01:33.739Z,98039.59
2023-02-13T02:04:11.595Z,98028.16
2023-02-13T02:06:49.256Z,98031.09
2023-02-13T02:09:29.542Z,98039.88
2023-02-13T02:12:07.093Z,98031.09
2023-02-13T02:14:41.725Z,98031.38
2023-02-13T02:17:15.917Z,98029.50
2023-02-13T02:19:55.217Z,98034.84
2023-02-13T02:23:22.405Z,98035.63
2023-02-13T02:26:34.119Z,98028.44
2023-02-13T02:29:42.608Z,98029.22
2023-02-13T02:32:45.541Z,98034.00
2023-02-13T02:35:29.494Z,98037.47
2023-02-13T02:38:18.123Z,98038.53
2023-02-13T02:40:59.633Z,98041.22
2023-02-13T02:43:46.924Z,98039.88
2023-02-13T02:46:28.315Z,98046.78
2023-02-13T02:49:24.653Z,98035.34
2023-02-13T02:52:06.188Z,98042.25
2023-02-13T02:55:03.780Z,98042.25
2023-02-13T02:58:01.535Z,98039.59
2023-02-13T03:00:52.182Z,98045.47
2023-02-13T03:03:44.495Z,98042.03
2023-02-13T03:06:26.032Z,98042.28
2023-02-13T03:09:20.676Z,98046.00
2023-02-13T03:12:13.906Z,98043.59
2023-02-13T03:14:47.192Z,98046.81
2023-02-13T03:17:38.615Z,98041.75
2023-02-13T03:20:38.740Z,98058.53
2023-02-13T03:23:41.334Z,98055.06
2023-02-13T03:26:50.372Z,98057.72
2023-02-13T03:29:53.655Z,98062.78
2023-02-13T03:32:38.566Z,98057.22
2023-02-13T03:35:42.709Z,98060.94
2023-02-13T03:38:22.153Z,98048.94
2023-02-13T03:41:22.041Z,98060.66
2023-02-13T03:44:10.231Z,98061.44
2023-02-13T03:46:48.973Z,98069.44
2023-02-13T03:49:42.531Z,98061.72
2023-02-13T03:52:23.590Z,98070.50
2023-02-13T03:55:23.113Z,98082.50
2023-02-13T03:58:17.068Z,98069.19
2023-02-13T04:00:53.551Z,98080.38
2023-02-13T04:03:32.428Z,98076.09
2023-02-13T04:06:11.090Z,98083.28
2023-02-13T04:08:44.676Z,98073.16
2023-02-13T04:11:25.856Z,98077.69
2023-02-13T04:14:01.330Z,98075.81
2023-02-13T04:16:42.227Z,98080.59
2023-02-13T04:19:18.730Z,98077.66
2023-02-13T04:21:58.173Z,98077.97
2023-02-13T04:24:31.580Z,98084.59
2023-02-13T04:27:06.078Z,98082.19
2023-02-13T04:29:38.938Z,98088.84
2023-02-13T04:32:12.902Z,98091.72
2023-02-13T04:34:45.771Z,98087.50
2023-02-13T04:37:18.672Z,98087.50
2023-02-13T04:39:55.122Z,98085.09
2023-02-13T04:42:29.882Z,98085.09
2023-02-13T04:45:05.935Z,98089.06
2023-02-13T04:47:38.958Z,98084.81
2023-02-13T04:50:12.532Z,98082.41
2023-02-13T04:52:45.443Z,98087.47
2023-02-13T04:55:18.399Z,98088.25
2023-02-13T04:57:54.991Z,98089.88
2023-02-13T05:00:29.846Z,98094.38
2023-02-13T05:03:07.218Z,98084.53
2023-02-13T05:05:41.242Z,98090.94
2023-02-13T05:08:14.141Z,98089.31
2023-02-13T05:10:47.081Z,98082.41
2023-02-13T05:13:23.239Z,98084.53
2023-02-13T05:15:56.245Z,98090.66
2023-02-13T05:18:29.438Z,98087.75
2023-02-13T05:21:19.873Z,98086.41
2023-02-13T05:23:52.835Z,98089.88
2023-02-13T05:26:25.719Z,98095.19
2023-02-13T05:29:26.047Z,98090.94
2023-02-13T05:31:59.932Z,98095.72
2023-02-13T05:34:33.077Z,98098.66
2023-02-13T05:37:05.957Z,98094.91
2023-02-13T05:39:41.759Z,98101.81
2023-02-13T05:42:14.670Z,98106.09
2023-02-13T05:44:49.404Z,98097.31
2023-02-13T05:47:22.781Z,98095.72
2023-02-13T05:49:55.914Z,98101.03
2023-02-13T05:52:30.972Z,98100.22
2023-02-13T05:55:03.888Z,98094.09
2023-02-13T05:57:36.734Z,98106.63
2023-02-13T06:00:14.924Z,98105.28
2023-02-13T06:02:50.283Z,98100.50
2023-02-13T06:05:23.190Z,98102.09
2023-02-13T06:07:56.057Z,98104.75
2023-02-13T06:10:28.990Z,98098.91
2023-02-13T06:13:01.887Z,98104.75
2023-02-13T06:15:36.343Z,98109.81
2023-02-13T06:18:09.816Z,98110.88
2023-02-13T06:20:42.706Z,98117.00
2023-02-13T06:23:15.790Z,98123.13
2023-02-13T06:25:48.798Z,98122.06
2023-02-13T06:28:21.711Z,98123.66
2023-02-13T06:30:56.598Z,98122.09
2023-02-13T06:33:29.807Z,98129.28
2023-02-13T06:36:02.690Z,98122.34
2023-02-13T06:38:35.590Z,98131.94
2023-02-13T06:41:08.556Z,98119.44
2023-02-13T06:43:41.555Z,98127.16
2023-02-13T06:46:15.890Z,98128.50
2023-02-13T06:48:48.795Z,98133.81
2023-02-13T06:51:21.753Z,98131.97
2023-02-13T06:53:54.700Z,98124.78
2023-02-13T06:56:27.924Z,98139.69
2023-02-13T06:59:00.814Z,98136.22
2023-02-13T07:01:35.206Z,98136.75
2023-02-13T07:04:08.088Z,98137.81
2023-02-13T07:06:40.986Z,98132.25
2023-02-13T07:09:14.294Z,98139.94
2023-02-13T07:11:47.313Z,98138.63
2023-02-13T07:14:20.324Z,98136.75
2023-02-13T07:16:54.691Z,98137.06
2023-02-13T07:19:27.617Z,98137.84
2023-02-13T07:22:00.640Z,98145.28
2023-02-13T07:24:35.441Z,98136.25
2023-02-13T07:27:08.436Z,98135.19
2023-02-13T07:29:41.330Z,98139.44
2023-02-13T07:32:16.440Z,98140.50
2023-02-13T07:35:00.845Z,98144.25
2023-02-13T07:37:34.622Z,98154.09
2023-02-13T07:40:09.074Z,98154.66
2023-02-13T07:42:41.963Z,98149.31
2023-02-13T07:45:23.445Z,98153.03
2023-02-13T07:47:57.984Z,98156.25
2023-02-13T07:50:31.053Z,98158.66
2023-02-13T07:53:04.178Z,98161.06
2023-02-13T07:55:39.392Z,98155.47
2023-02-13T07:58:12.556Z,98166.38
2023-02-13T08:00:45.472Z,98158.13
2023-02-13T08:03:19.780Z,98163.44
2023-02-13T08:05:52.736Z,98152.53
2023-02-13T08:08:25.617Z,98160.25
2023-02-13T08:11:21.646Z,98162.41
2023-02-13T08:13:54.503Z,98160.78
2023-02-13T08:16:27.461Z,98159.47
2023-02-13T08:19:01.842Z,98156.78
2023-02-13T08:21:35.343Z,98156.00
2023-02-13T08:24:08.705Z,98154.13
2023-02-13T08:26:41.938Z,98156.00
2023-02-13T08:29:14.815Z,98157.06
2023-02-13T08:31:47.831Z,98161.03
2023-02-13T08:34:22.286Z,98159.19
2023-02-13T08:36:55.255Z,98159.97
2023-02-13T08:39:28.203Z,98162.63
2023-02-13T08:42:01.246Z,98167.44
2023-02-13T08:44:34.222Z,98164.47
2023-02-13T08:47:07.248Z,98164.44
2023-02-13T08:49:41.642Z,98163.38
2023-02-13T08:52:14.600Z,98170.56
2023-02-13T08:54:47.467Z,98166.00
2023-02-13T08:57:20.462Z,98170.81
2023-02-13T08:59:53.347Z,98172.38
2023-02-13T09:02:26.281Z,98183.84
2023-02-13T09:05:00.519Z,98177.69
2023-02-13T09:07:33.425Z,98176.09
2023-02-13T09:10:07.573Z,98177.94
2023-02-13T09:12:40.552Z,98177.63
2023-02-13T09:15:13.484Z,98176.06
2023-02-13T09:17:46.522Z,98180.03
2023-02-13T09:20:20.974Z,98180.78
2023-02-13T09:22:53.959Z,98178.09
2023-02-13T09:25:27.523Z,98176.47
2023-02-13T09:28:01.066Z,98176.19
2023-02-13T09:30:33.974Z,98175.88
2023-02-13T09:33:11.967Z,98179.84
2023-02-13T09:35:46.332Z,98175.53
2023-02-13T09:38:19.440Z,98174.16
2023-02-13T09:40:56.154Z,98169.31
2023-02-13T09:43:32.013Z,98171.94
2023-02-13T09:46:14.384Z,98173.72
2023-02-13T09:48:51.065Z,98172.09
2023-02-13T09:51:29.536Z,98182.47
2023-02-13T09:54:05.980Z,98172.00
2023-02-13T09:56:50.741Z,98175.44
2023-02-13T09:59:36.697Z,98177.00
2023-02-13T10:02:42.565Z,98173.19
2023-02-13T10:05:29.547Z,98173.97
2023-02-13T10:08:12.273Z,98180.84
2023-02-13T10:10:54.496Z,98183.78
2023-02-13T10:13:43.258Z,98180.53
2023-02-13T10:16:20.764Z,98184.53
2023-02-13T10:18:58.787Z,98177.28
2023-02-13T10:21:37.062Z,98187.94
2023-02-13T10:24:18.964Z,98180.16
2023-02-13T10:26:52.725Z,98175.03
2023-02-13T10:29:49.663Z,98177.59
2023-02-13T10:32:30.275Z,98175.72
2023-02-13T10:35:05.266Z,98167.06
2023-02-13T10:37:39.531Z,98165.91
2023-02-13T10:40:15.674Z,98163.69
2023-02-13T10:43:00.569Z,98174.03
2023-02-13T10:45:50.716Z,98160.34
2023-02-13T10:48:50.021Z,98153.81
2023-02-13T10:51:31.438Z,98149.78
2023-02-13T10:54:24.926Z,98152.16
2023-02-13T10:57:08.911Z,98140.34
2023-02-13T10:59:56.394Z,98142.25
2023-02-13T11:02:31.829Z,98135.31
2023-02-13T11:05:16.755Z,98133.72
2023-02-13T11:07:50.056Z,98130.00
2023-02-13T11:10:25.635Z,98133.25
2023-02-13T11:13:19.345Z,98126.91
2023-02-13T11:16:04.767Z,98123.19
2023-02-13T11:18:41.709Z,98121.66
2023-02-13T11:21:21.416Z,98123.03
2023-02-13T11:23:56.443Z,98126.31
2023-02-13T11:26:34.704Z,98125.88
2023-02-13T11:29:21.791Z,98125.13
2023-02-13T11:32:06.754Z,98122.28
2023-02-13T11:34:39.972Z,98120.53
2023-02-13T11:37:19.893Z,98115.00
2023-02-13T11:39:54.786Z,98116.78
2023-02-13T11:42:31.497Z,98114.78
2023-02-13T11:45:08.698Z,98106.59
2023-02-13T11:47:43.986Z,98107.53
2023-02-13T11:50:27.134Z,98106.53
2023-02-13T11:53:03.324Z,98105.78
2023-02-13T11:55:39.121Z,98101.06
2023-02-13T11:58:26.125Z,98103.25
2023-02-13T12:01:38.196Z,98111.84
2023-02-13T12:04:16.724Z,98110.28
2023-02-13T12:07:01.445Z,98103.88
2023-02-13T12:09:34.343Z,98099.13
2023-02-13T12:12:08.140Z,98101.28
2023-02-13T12:14:44.531Z,98095.97
2023-02-13T12:17:31.278Z,98097.28
2023-02-13T12:20:05.234Z,98093.06
2023-02-13T12:22:48.467Z,98099.19
2023-02-13T12:25:41.675Z,98088.78
2023-02-13T12:28:17.301Z,98084.25
2023-02-13T12:31:24.847Z,98082.69
2023-02-13T12:34:22.529Z,98072.28
2023-02-13T12:37:07.843Z,98076.28
2023-02-13T12:39:49.394Z,98076.03
2023-02-13T12:42:34.978Z,98070.69
2023-02-13T12:45:22.775Z,98074.72
2023-02-13T12:48:16.789Z,98068.06
2023-02-13T12:51:00.954Z,98075.28
2023-02-13T12:53:48.746Z,98069.94
2023-02-13T12:56:32.766Z,98070.19
2023-02-13T12:59:15.417Z,98067.53
2023-02-13T13:02:17.007Z,98058.47
2023-02-13T13:05:03.355Z,98060.81
2023-02-13T13:07:55.381Z,98050.94
2023-02-13T13:10:43.471Z,98055.22
2023-02-13T13:13:30.294Z,98051.75
2023-02-13T13:16:11.389Z,98046.13
2023-02-13T13:18:54.781Z,98045.34
2023-02-13T13:21:36.603Z,98044.53
2023-02-13T13:24:16.670Z,98029.88
2023-02-13T13:26:52.080Z,98043.72
2023-02-13T13:29:31.051Z,98034.94
2023-02-13T13:32:08.781Z,98036.22
2023-02-13T13:34:41.698Z,98036.22
2023-02-13T13:37:27.966Z,98029.56
2023-02-13T13:40:11.372Z,98023.94
2023-02-13T13:42:53.294Z,98016.47
2023-02-13T13:45:30.450Z,98025.78
2023-02-13T13:48:21.224Z,98020.16
2023-02-13T13:50:55.093Z,98020.16
2023-02-13T13:53:28.059Z,98019.91
2023-02-13T13:56:09.375Z,98025.19
2023-02-13T13:58:44.973Z,98021.72
2023-02-13T14:01:19.821Z,98027.06
2023-02-13T14:03:55.275Z,98024.41
2023-02-13T14:06:49.291Z,98027.59
2023-02-13T14:09:40.146Z,98035.56
2023-02-13T14:12:47.689Z,98031.00
2023-02-13T14:15:52.220Z,98034.47
2023-02-13T14:18:27.910Z,98035.00
2023-02-13T14:21:03.517Z,98024.31
2023-02-13T14:23:49.781Z,98030.19
2023-02-13T14:26:41.736Z,98027.22
2023-02-13T14:29:28.478Z,98020.00
2023-02-13T14:32:20.442Z,98024.53
2023-02-13T14:34:55.444Z,98023.72
2023-02-13T14:37:36.751Z,98026.66
2023-02-13T14:40:29.130Z,98025.53
2023-02-13T14:43:20.678Z,98022.06
2023-02-13T14:45:58.257Z,98018.63
2023-02-13T14:48:43.305Z,98015.97
2023-02-13T14:51:28.567Z,98017.84
2023-02-13T14:54:07.079Z,98020.50
2023-02-13T14:56:40.622Z,98021.84
2023-02-13T14:59:18.269Z,98021.59
2023-02-13T15:01:58.970Z,98019.97
2023-02-13T15:04:36.813Z,98018.38
2023-02-13T15:07:17.276Z,98013.03
2023-02-13T15:09:53.952Z,98014.13
2023-02-13T15:12:29.346Z,98017.06
2023-02-13T15:15:03.190Z,98014.38
2023-02-13T15:17:40.235Z,98017.34
2023-02-13T15:20:25.024Z,98014.66
2023-02-13T15:22:58.776Z,98013.88
2023-02-13T15:25:35.677Z,98009.63
2023-02-13T15:28:16.469Z,98005.38
2023-02-13T15:30:57.079Z,98008.31
2023-02-13T15:33:38.324Z,98007.78
2023-02-13T15:36:20.131Z,98006.19
2023-02-13T15:39:00.351Z,98008.31
2023-02-13T15:41:37.044Z,98006.22
2023-02-13T15:44:18.940Z,98008.09
2023-02-13T15:46:52.735Z,98004.38
2023-02-13T15:49:28.366Z,98005.72
2023-02-13T15:52:06.360Z,98008.13
2023-02-13T15:54:50.381Z,98000.13
2023-02-13T15:57:24.873Z,98007.38
2023-02-13T15:59:59.846Z,97992.47
2023-02-13T16:02:41.448Z,97995.72
2023-02-13T16:05:26.566Z,97991.97
2023-02-13T16:08:32.356Z,97996.78
2023-02-13T16:11:22.564Z,97994.69
2023-02-13T16:14:13.954Z,97997.69
2023-02-13T16:16:53.908Z,97990.47
2023-02-13T16:19:31.862Z,97985.19
2023-02-13T16:22:17.414Z,97990.25
2023-02-13T16:24:53.293Z,97988.19
2023-02-13T16:27:28.931Z,97988.22
2023-02-13T16:30:22.716Z,97991.16
2023-02-13T16:33:12.216Z,97990.94
2023-02-13T16:35:48.687Z,97986.97
2023-02-13T16:38:34.360Z,97986.97
2023-02-13T16:41:28.763Z,97993.94
2023-02-13T16:44:02.600Z,97999.81
2023-02-13T16:46:37.518Z,98002.25
2023-02-13T16:49:32.798Z,97997.75
2023-02-13T16:52:12.658Z,98011.31
2023-02-13T16:55:04.419Z,98012.69
2023-02-13T16:57:37.365Z,98008.16
2023-02-13T17:00:20.553Z,98013.25
2023-02-13T17:02:53.447Z,98014.84
2023-02-13T17:05:28.934Z,98007.94
2023-02-13T17:08:01.858Z,98002.38
2023-02-13T17:10:37.858Z,98013.00
2023-02-13T17:13:17.622Z,98018.84
2023-02-13T17:15:51.879Z,98019.13
2023-02-13T17:18:24.869Z,98022.03
2023-02-13T17:20:58.043Z,98018.84
2023-02-13T17:23:31.218Z,98020.66
2023-02-13T17:26:05.866Z,98021.72
2023-02-13T17:28:38.807Z,98022.25
2023-02-13T17:31:14.059Z,98025.97
2023-02-13T17:33:47.058Z,98024.59
2023-02-13T17:36:19.941Z,98020.84
2023-02-13T17:38:52.823Z,98032.00
2023-02-13T17:41:27.532Z,98033.59
2023-02-13T17:44:00.409Z,98038.63
2023-02-13T17:46:34.434Z,98041.78
2023-02-13T17:49:07.526Z,98050.78
2023-02-13T17:51:43.837Z,98045.69
2023-02-13T17:54:17.924Z,98050.44
2023-02-13T17:56:52.222Z,98051.25
2023-02-13T17:59:25.706Z,98049.06
2023-02-13T18:01:58.718Z,98051.94
2023-02-13T18:04:31.779Z,98047.91
2023-02-13T18:07:04.770Z,98054.25
2023-02-13T18:09:37.860Z,98062.16
2023-02-13T18:12:15.329Z,98060.53
2023-02-13T18:14:48.989Z,98059.16
2023-02-13T18:17:22.356Z,98054.06
2023-02-13T18:19:58.052Z,98056.44
2023-02-13T18:22:30.976Z,98054.25
2023-02-13T18:25:04.603Z,98052.06
2023-02-13T18:27:38.873Z,98053.88
2023-02-13T18:30:14.376Z,98058.59
2023-02-13T18:32:51.538Z,98051.88
2023-02-13T18:35:24.937Z,98056.34
2023-02-13T18:37:57.795Z,98055.50
2023-02-13T18:40:30.836Z,98051.47
2023-02-13T18:43:05.240Z,98058.78
2023-02-13T18:45:38.827Z,98052.91
2023-02-13T18:48:11.705Z,98051.25
2023-02-13T18:50:44.836Z,98050.38
2023-02-13T18:53:17.735Z,98046.28
2023-02-13T18:55:50.737Z,98047.28
2023-02-13T18:58:25.548Z,98051.50
2023-02-13T19:00:58.757Z,98054.31
2023-02-13T19:03:32.097Z,98059.00
2023-02-13T19:06:08.333Z,98059.75
2023-02-13T19:08:41.450Z,98060.72
2023-02-13T19:11:16.422Z,98065.97
2023-02-13T19:13:54.703Z,98056.84
2023-02-13T19:16:29.630Z,98059.44
2023-02-13T19:19:04.883Z,98059.59
2023-02-13T19:21:39.539Z,98063.00
2023-02-13T19:24:15.429Z,98061.34
2023-02-13T19:26:48.510Z,98053.81
2023-02-13T19:29:22.834Z,98057.72
2023-02-13T19:31:55.991Z,98062.94
2023-02-13T19:34:28.924Z,98057.81
2023-02-13T19:37:01.864Z,98053.28
2023-02-13T19:39:34.880Z,98053.97
2023-02-13T19:42:07.839Z,98053.09
2023-02-13T19:44:42.201Z,98053.59
2023-02-13T19:47:15.302Z,98059.63
2023-02-13T19:49:49.969Z,98059.50
2023-02-13T19:52:24.457Z,98067.16
2023-02-13T19:54:57.387Z,98068.41
2023-02-13T19:57:30.311Z,98062.25
2023-02-13T20:00:05.181Z,98063.28
2023-02-13T20:02:38.376Z,98059.78
2023-02-13T20:05:11.372Z,98065.53
2023-02-13T20:07:44.331Z,98068.88
2023-02-13T20:10:17.221Z,98068.56
2023-02-13T20:12:53.789Z,98070.66
2023-02-13T20:15:28.054Z,98076.16
2023-02-13T20:18:01.084Z,98076.09
2023-02-13T20:20:33.942Z,98067.00
2023-02-13T20:23:07.166Z,98076.25
2023-02-13T20:25:40.664Z,98066.94
2023-02-13T20:28:13.668Z,98066.59
2023-02-13T20:30:48.103Z,98072.91
2023-02-13T20:33:21.067Z,98075.25
2023-02-13T20:35:53.944Z,98075.16
2023-02-13T20:38:26.909Z,98066.09
2023-02-13T20:41:01.749Z,98069.78
2023-02-13T20:43:35.827Z,98073.16
2023-02-13T20:46:11.017Z,98071.75
2023-02-13T20:48:45.679Z,98074.88
2023-02-13T20:51:20.088Z,98072.69
2023-02-13T20:53:53.026Z,98079.50
2023-02-13T20:56:28.280Z,98072.84
2023-02-13T20:59:02.659Z,98076.19
2023-02-13T21:01:41.327Z,98072.97
2023-02-13T21:04:19.104Z,98076.06
2023-02-13T21:06:52.119Z,98073.13
2023-02-13T21:09:25.866Z,98065.41
2023-02-13T21:11:58.777Z,98058.75
2023-02-13T21:14:31.817Z,98063.47
2023-02-13T21:17:06.423Z,98065.56
2023-02-13T21:19:39.880Z,98057.88
2023-02-13T21:22:12.852Z,98061.19
2023-02-13T21:24:45.733Z,98057.75
2023-02-13T21:27:18.748Z,98059.03
2023-02-13T21:29:51.779Z,98063.75
2023-02-13T21:32:26.546Z,98048.72
2023-02-13T21:34:59.528Z,98055.25
2023-02-13T21:37:32.601Z,98061.56
2023-02-13T21:40:06.377Z,98059.94
2023-02-13T21:42:39.299Z,98059.41
2023-02-13T21:45:12.636Z,98065.72
2023-02-13T21:47:46.958Z,98060.44
2023-02-13T21:50:22.265Z,98061.47
2023-02-13T21:52:55.143Z,98054.34
2023-02-13T21:55:34.041Z,98055.97
2023-02-13T21:58:06.881Z,98069.25
2023-02-13T22:00:39.770Z,98063.75
2023-02-13T22:03:14.075Z,98066.25
2023-02-13T22:05:47.857Z,98069.00
2023-02-13T22:08:20.802Z,98074.72
2023-02-13T22:10:54.914Z,98068.25
2023-02-13T22:13:28.888Z,98069.28
2023-02-13T22:16:02.263Z,98072.66
2023-02-13T22:18:38.557Z,98076.06
2023-02-13T22:21:13.661Z,98077.38
2023-02-13T22:23:47.653Z,98072.25
2023-02-13T22:26:22.573Z,98078.81
2023-02-13T22:28:59.637Z,98071.63
2023-02-13T22:31:33.260Z,98069.16
2023-02-13T22:34:08.073Z,98064.56
2023-02-13T22:36:41.366Z,98067.13
2023-02-13T22:39:14.206Z,98069.94
2023-02-13T22:41:47.686Z,98067.44
2023-02-13T22:44:20.607Z,98067.31
2023-02-13T22:46:53.581Z,98071.13
2023-02-13T22:49:28.066Z,98066.22
2023-02-13T22:52:01.085Z,98073.72
2023-02-13T22:54:34.114Z,98070.66
2023-02-13T22:57:07.342Z,98074.47
2023-02-13T22:59:40.435Z,98072.69
2023-02-13T23:02:13.412Z,98069.63
2023-02-13T23:04:49.331Z,98079.78
2023-02-13T23:07:22.552Z,98070.06
2023-02-13T23:09:55.509Z,98074.91
2023-02-13T23:12:36.203Z,98075.50
2023-02-13T23:15:14.019Z,98077.19
2023-02-13T23:18:04.553Z,98081.72
2023-02-13T23:20:39.074Z,98085.22
2023-02-13T23:23:12.641Z,98082.06
2023-02-13T23:25:45.547Z,98092.19
2023-02-13T23:28:18.575Z,98093.03
2023-02-13T23:30:51.516Z,98084.81
2023-02-13T23:33:24.492Z,98083.25
2023-02-13T23:35:58.810Z,98085.72
2023-02-13T23:38:31.824Z,98077.75
2023-02-13T23:41:08.758Z,98080.44
2023-02-13T23:43:41.725Z,98087.59
2023-02-13T23:46:14.609Z,98084.47
2023-02-13T23:48:47.485Z,98088.47
2023-02-13T23:51:23.140Z,98080.50
2023-02-13T23:53:57.390Z,98080.50
2023-02-13T23:56:30.283Z,98086.34
2023-02-13T23:59:03.190Z,98076.78
